sensor_id;sensor_type;location;lat;lon;timestamp;P1;durP1;ratioP1;P2;durP2;ratioP2
7585;SDS011;12459;42.646;23.292;2023-03-04T00:04:36;4.73;;;4.43;;
7585;SDS011;12459;42.646;23.292;2023-03-04T00:19:37;4.70;;;4.40;;
7585;SDS011;12459;42.646;23.292;2023-03-04T00:34:39;5.40;;;5.00;;
7585;SDS011;12459;42.646;23.292;2023-03-04T00:49:41;5.93;;;5.53;;
7585;SDS011;12459;42.646;23.292;2023-03-04T01:04:42;4.73;;;4.43;;
7585;SDS011;12459;42.646;23.292;2023-03-04T01:19:44;5.73;;;5.33;;
7585;SDS011;12459;42.646;23.292;2023-03-04T01:34:46;5.40;;;5.00;;
7585;SDS011;12459;42.646;23.292;2023-03-04T01:49:49;5.90;;;5.50;;
7585;SDS011;12459;42.646;23.292;2023-03-04T02:04:55;4.40;;;4.10;;
7585;SDS011;12459;42.646;23.292;2023-03-04T02:50:14;4.43;;;4.13;;
7585;SDS011;12459;42.646;23.292;2023-03-04T03:05:16;4.67;;;4.37;;
7585;SDS011;12459;42.646;23.292;2023-03-04T03:20:18;5.23;;;4.90;;
7585;SDS011;12459;42.646;23.292;2023-03-04T03:35:21;4.57;;;4.27;;
7585;SDS011;12459;42.646;23.292;2023-03-04T03:50:22;4.73;;;4.43;;
7585;SDS011;12459;42.646;23.292;2023-03-04T04:05:24;4.73;;;4.43;;
7585;SDS011;12459;42.646;23.292;2023-03-04T04:20:26;4.07;;;3.77;;
7585;SDS011;12459;42.646;23.292;2023-03-04T04:35:28;4.17;;;3.87;;
7585;SDS011;12459;42.646;23.292;2023-03-04T04:50:30;3.53;;;3.23;;
7585;SDS011;12459;42.646;23.292;2023-03-04T05:05:33;5.47;;;5.07;;
7585;SDS011;12459;42.646;23.292;2023-03-04T05:20:35;5.40;;;5.00;;
7585;SDS011;12459;42.646;23.292;2023-03-04T05:35:37;4.33;;;4.03;;
7585;SDS011;12459;42.646;23.292;2023-03-04T05:50:41;5.30;;;4.90;;
7585;SDS011;12459;42.646;23.292;2023-03-04T06:05:43;4.83;;;4.53;;
7585;SDS011;12459;42.646;23.292;2023-03-04T06:20:45;5.63;;;5.23;;
7585;SDS011;12459;42.646;23.292;2023-03-04T06:35:47;4.53;;;4.23;;
7585;SDS011;12459;42.646;23.292;2023-03-04T06:50:49;4.57;;;4.27;;
7585;SDS011;12459;42.646;23.292;2023-03-04T07:05:50;4.53;;;4.23;;
7585;SDS011;12459;42.646;23.292;2023-03-04T07:20:52;4.73;;;4.43;;
7585;SDS011;12459;42.646;23.292;2023-03-04T07:35:58;4.53;;;4.23;;
7585;SDS011;12459;42.646;23.292;2023-03-04T08:06:13;5.07;;;4.77;;
7585;SDS011;12459;42.646;23.292;2023-03-04T08:21:17;4.37;;;4.07;;
7585;SDS011;12459;42.646;23.292;2023-03-04T08:36:20;6.53;;;6.13;;
7585;SDS011;12459;42.646;23.292;2023-03-04T08:51:22;4.17;;;3.87;;
7585;SDS011;12459;42.646;23.292;2023-03-04T09:06:23;5.60;;;5.20;;
7585;SDS011;12459;42.646;23.292;2023-03-04T09:21:25;5.60;;;5.20;;
7585;SDS011;12459;42.646;23.292;2023-03-04T09:36:27;6.33;;;5.93;;
7585;SDS011;12459;42.646;23.292;2023-03-04T10:06:36;6.43;;;6.03;;
7585;SDS011;12459;42.646;23.292;2023-03-04T10:21:47;7.53;;;7.07;;
7585;SDS011;12459;42.646;23.292;2023-03-04T10:52:12;6.53;;;6.13;;
7585;SDS011;12459;42.646;23.292;2023-03-04T11:07:24;5.63;;;5.23;;
7585;SDS011;12459;42.646;23.292;2023-03-04T11:22:27;6.47;;;6.07;;
7585;SDS011;12459;42.646;23.292;2023-03-04T11:37:46;6.27;;;5.87;;
7585;SDS011;12459;42.646;23.292;2023-03-04T12:08:19;6.13;;;5.73;;
7585;SDS011;12459;42.646;23.292;2023-03-04T13:09:44;6.17;;;5.77;;
7585;SDS011;12459;42.646;23.292;2023-03-04T13:24:55;5.60;;;5.20;;
7585;SDS011;12459;42.646;23.292;2023-03-04T13:40:33;8.47;;;7.97;;
7585;SDS011;12459;42.646;23.292;2023-03-04T13:55:39;8.90;;;8.40;;
7585;SDS011;12459;42.646;23.292;2023-03-04T14:10:43;7.63;;;7.20;;
7585;SDS011;12459;42.646;23.292;2023-03-04T14:25:45;6.93;;;6.53;;
7585;SDS011;12459;42.646;23.292;2023-03-04T14:40:47;7.40;;;6.93;;
7585;SDS011;12459;42.646;23.292;2023-03-04T14:56:03;7.93;;;7.43;;
7585;SDS011;12459;42.646;23.292;2023-03-04T15:11:05;7.37;;;6.97;;
7585;SDS011;12459;42.646;23.292;2023-03-04T15:26:08;7.60;;;7.17;;
7585;SDS011;12459;42.646;23.292;2023-03-04T15:41:13;7.63;;;7.17;;
7585;SDS011;12459;42.646;23.292;2023-03-04T15:56:19;7.43;;;7.03;;
7585;SDS011;12459;42.646;23.292;2023-03-04T16:11:26;8.70;;;8.20;;
7585;SDS011;12459;42.646;23.292;2023-03-04T16:26:30;6.33;;;5.93;;
7585;SDS011;12459;42.646;23.292;2023-03-04T16:41:33;6.27;;;5.87;;
7585;SDS011;12459;42.646;23.292;2023-03-04T16:56:37;6.27;;;5.87;;
7585;SDS011;12459;42.646;23.292;2023-03-04T17:11:39;6.23;;;5.83;;
7585;SDS011;12459;42.646;23.292;2023-03-04T17:26:40;6.23;;;5.83;;
7585;SDS011;12459;42.646;23.292;2023-03-04T17:41:42;5.53;;;5.13;;
7585;SDS011;12459;42.646;23.292;2023-03-04T17:56:44;5.60;;;5.20;;
7585;SDS011;12459;42.646;23.292;2023-03-04T18:11:47;5.87;;;5.47;;
7585;SDS011;12459;42.646;23.292;2023-03-04T18:26:49;5.50;;;5.10;;
7585;SDS011;12459;42.646;23.292;2023-03-04T18:41:50;5.43;;;5.03;;
7585;SDS011;12459;42.646;23.292;2023-03-04T18:56:53;5.03;;;4.73;;
7585;SDS011;12459;42.646;23.292;2023-03-04T19:11:57;6.33;;;5.93;;
7585;SDS011;12459;42.646;23.292;2023-03-04T19:26:59;6.10;;;5.70;;
7585;SDS011;12459;42.646;23.292;2023-03-04T19:42:01;4.93;;;4.63;;
7585;SDS011;12459;42.646;23.292;2023-03-04T19:57:03;5.33;;;4.97;;
7585;SDS011;12459;42.646;23.292;2023-03-04T20:12:05;6.07;;;5.67;;
7585;SDS011;12459;42.646;23.292;2023-03-04T20:27:07;4.83;;;4.53;;
7585;SDS011;12459;42.646;23.292;2023-03-04T20:42:08;5.67;;;5.27;;
7585;SDS011;12459;42.646;23.292;2023-03-04T20:57:10;6.40;;;6.00;;
7585;SDS011;12459;42.646;23.292;2023-03-04T21:12:12;5.70;;;5.30;;
7585;SDS011;12459;42.646;23.292;2023-03-04T21:27:14;6.83;;;6.43;;
7585;SDS011;12459;42.646;23.292;2023-03-04T21:42:17;6.00;;;5.60;;
7585;SDS011;12459;42.646;23.292;2023-03-04T21:57:19;5.53;;;5.13;;
7585;SDS011;12459;42.646;23.292;2023-03-04T22:12:21;5.73;;;5.33;;
7585;SDS011;12459;42.646;23.292;2023-03-04T22:27:23;6.07;;;5.67;;
7585;SDS011;12459;42.646;23.292;2023-03-04T22:42:24;6.83;;;6.43;;
7585;SDS011;12459;42.646;23.292;2023-03-04T22:57:26;6.13;;;5.73;;
7585;SDS011;12459;42.646;23.292;2023-03-04T23:12:28;6.37;;;5.97;;
7585;SDS011;12459;42.646;23.292;2023-03-04T23:27:30;5.27;;;4.90;;
7585;SDS011;12459;42.646;23.292;2023-03-04T23:42:31;6.23;;;5.83;;
7585;SDS011;12459;42.646;23.292;2023-03-04T23:57:33;5.63;;;5.23;;
